Terminal Aerodrome Forecast
Issued by NWS North Platte, NE

Home | Current Version | Previous Version | Text Only | Print | Product List | Glossary Off
Versions: 1 2 3 4 5 6 7 8 9 10 11 12 13 14 15

852
FTUS43 KLBF 201720
TAFVTN
TAF
KVTN 201720Z 2018/2118 31012G19KT P6SM SKC
     FM202100 32010KT P6SM SKC
     FM210000 32005KT P6SM FEW250
     FM210300 VRB03KT P6SM FEW250=

USA.gov is the U.S. government's official web portal to all federal, state and local government web resources and services.